sensor_id;sensor_type;location;lat;lon;timestamp;pressure;altitude;pressure_sealevel;temperature;humidity
71299;BME280;59083;47.974;21.722;2023-04-22T00:01:20;100191.00;;;10.50;56.68
71299;BME280;59083;47.974;21.722;2023-04-22T00:04:21;100191.38;;;10.47;56.31
71299;BME280;59083;47.974;21.722;2023-04-22T00:07:22;100192.16;;;10.41;56.25
71299;BME280;59083;47.974;21.722;2023-04-22T00:10:24;100189.25;;;10.35;56.49
71299;BME280;59083;47.974;21.722;2023-04-22T00:13:25;100190.06;;;10.36;56.52
71299;BME280;59083;47.974;21.722;2023-04-22T00:16:26;100190.25;;;10.34;56.71
71299;BME280;59083;47.974;21.722;2023-04-22T00:19:27;100196.59;;;10.33;56.83
71299;BME280;59083;47.974;21.722;2023-04-22T00:22:29;100199.81;;;10.29;56.30
71299;BME280;59083;47.974;21.722;2023-04-22T00:25:30;100192.03;;;10.27;56.52
71299;BME280;59083;47.974;21.722;2023-04-22T00:28:31;100192.41;;;10.24;56.22
71299;BME280;59083;47.974;21.722;2023-04-22T00:31:32;100188.28;;;10.22;56.52
71299;BME280;59083;47.974;21.722;2023-04-22T00:34:34;100191.50;;;10.17;56.13
71299;BME280;59083;47.974;21.722;2023-04-22T00:37:35;100185.25;;;10.10;56.76
71299;BME280;59083;47.974;21.722;2023-04-22T00:40:37;100191.59;;;10.09;57.20
71299;BME280;59083;47.974;21.722;2023-04-22T00:43:38;100185.81;;;10.06;56.96
71299;BME280;59083;47.974;21.722;2023-04-22T00:46:39;100184.34;;;10.03;56.73
71299;BME280;59083;47.974;21.722;2023-04-22T00:49:40;100187.66;;;10.05;57.33
71299;BME280;59083;47.974;21.722;2023-04-22T00:52:42;100188.06;;;10.02;56.85
71299;BME280;59083;47.974;21.722;2023-04-22T00:55:43;100160.78;;;9.79;57.02
71299;BME280;59083;47.974;21.722;2023-04-22T00:58:44;100184.66;;;9.93;57.10
71299;BME280;59083;47.974;21.722;2023-04-22T01:01:45;100185.50;;;9.94;57.15
71299;BME280;59083;47.974;21.722;2023-04-22T01:04:47;100185.84;;;9.91;57.01
71299;BME280;59083;47.974;21.722;2023-04-22T01:07:49;100186.25;;;9.88;57.02
71299;BME280;59083;47.974;21.722;2023-04-22T01:10:51;100182.94;;;9.86;57.28
71299;BME280;59083;47.974;21.722;2023-04-22T01:13:52;100188.72;;;9.89;56.94
71299;BME280;59083;47.974;21.722;2023-04-22T01:16:54;100189.66;;;9.82;57.37
71299;BME280;59083;47.974;21.722;2023-04-22T01:19:55;100189.00;;;9.80;57.22
71299;BME280;59083;47.974;21.722;2023-04-22T01:23:01;100190.22;;;9.77;57.33
71299;BME280;59083;47.974;21.722;2023-04-22T01:26:04;100188.12;;;9.73;57.60
71299;BME280;59083;47.974;21.722;2023-04-22T01:29:06;100199.50;;;9.67;57.73
71299;BME280;59083;47.974;21.722;2023-04-22T01:32:07;100203.91;;;9.60;57.34
71299;BME280;59083;47.974;21.722;2023-04-22T01:35:09;100193.28;;;9.60;57.89
71299;BME280;59083;47.974;21.722;2023-04-22T01:38:11;100197.50;;;9.54;58.32
71299;BME280;59083;47.974;21.722;2023-04-22T01:41:13;100202.56;;;9.49;57.90
71299;BME280;59083;47.974;21.722;2023-04-22T01:44:14;100201.72;;;9.48;57.85
71299;BME280;59083;47.974;21.722;2023-04-22T01:47:16;100203.75;;;9.46;57.90
71299;BME280;59083;47.974;21.722;2023-04-22T01:50:17;100193.09;;;9.46;57.79
71299;BME280;59083;47.974;21.722;2023-04-22T01:53:20;100194.75;;;9.47;58.24
71299;BME280;59083;47.974;21.722;2023-04-22T01:56:21;100193.47;;;9.43;58.60
71299;BME280;59083;47.974;21.722;2023-04-22T01:59:22;100195.88;;;9.38;58.68
71299;BME280;59083;47.974;21.722;2023-04-22T02:02:23;100195.03;;;9.38;58.63
71299;BME280;59083;47.974;21.722;2023-04-22T02:05:25;100199.87;;;9.34;59.17
71299;BME280;59083;47.974;21.722;2023-04-22T02:08:27;100196.59;;;9.32;59.14
71299;BME280;59083;47.974;21.722;2023-04-22T02:11:28;100185.44;;;9.22;59.43
71299;BME280;59083;47.974;21.722;2023-04-22T02:14:29;100192.03;;;9.26;59.29
71299;BME280;59083;47.974;21.722;2023-04-22T02:17:30;100194.03;;;9.24;59.12
71299;BME280;59083;47.974;21.722;2023-04-22T02:20:32;100197.50;;;9.25;59.42
71299;BME280;59083;47.974;21.722;2023-04-22T02:23:33;100197.69;;;9.23;59.02
71299;BME280;59083;47.974;21.722;2023-04-22T02:26:34;100197.34;;;9.26;59.00
71299;BME280;59083;47.974;21.722;2023-04-22T02:29:35;100194.03;;;9.24;59.64
71299;BME280;59083;47.974;21.722;2023-04-22T02:32:37;100192.09;;;9.18;59.51
71299;BME280;59083;47.974;21.722;2023-04-22T02:35:39;100204.78;;;9.16;59.51
71299;BME280;59083;47.974;21.722;2023-04-22T02:38:41;100193.09;;;9.17;59.67
71299;BME280;59083;47.974;21.722;2023-04-22T02:41:42;100190.75;;;9.22;59.17
71299;BME280;59083;47.974;21.722;2023-04-22T02:44:43;100194.03;;;9.24;58.93
71299;BME280;59083;47.974;21.722;2023-04-22T02:47:44;100196.97;;;9.29;58.79
71299;BME280;59083;47.974;21.722;2023-04-22T02:50:46;100193.94;;;9.18;59.00
71299;BME280;59083;47.974;21.722;2023-04-22T02:53:47;100190.56;;;9.09;59.55
71299;BME280;59083;47.974;21.722;2023-04-22T02:56:48;100193.28;;;9.01;59.86
71299;BME280;59083;47.974;21.722;2023-04-22T02:59:50;100203.19;;;8.92;60.33
71299;BME280;59083;47.974;21.722;2023-04-22T03:02:51;100200.41;;;8.86;60.50
71299;BME280;59083;47.974;21.722;2023-04-22T03:05:53;100193.94;;;8.88;60.69
71299;BME280;59083;47.974;21.722;2023-04-22T03:08:54;100205.16;;;8.76;61.08
71299;BME280;59083;47.974;21.722;2023-04-22T03:11:56;100201.84;;;8.74;60.74
71299;BME280;59083;47.974;21.722;2023-04-22T03:14:57;100205.50;;;8.73;61.22
71299;BME280;59083;47.974;21.722;2023-04-22T03:17:59;100212.84;;;8.70;61.03
71299;BME280;59083;47.974;21.722;2023-04-22T03:21:02;100208.88;;;8.66;61.60
71299;BME280;59083;47.974;21.722;2023-04-22T03:24:04;100209.91;;;8.65;62.05
71299;BME280;59083;47.974;21.722;2023-04-22T03:27:06;100216.84;;;8.66;61.88
71299;BME280;59083;47.974;21.722;2023-04-22T03:30:07;100217.22;;;8.63;61.67
71299;BME280;59083;47.974;21.722;2023-04-22T03:33:10;100219.72;;;8.65;61.95
71299;BME280;59083;47.974;21.722;2023-04-22T03:36:12;100225.84;;;8.65;61.66
71299;BME280;59083;47.974;21.722;2023-04-22T03:39:13;100223.19;;;8.65;61.85
71299;BME280;59083;47.974;21.722;2023-04-22T03:42:15;100229.12;;;8.67;61.63
71299;BME280;59083;47.974;21.722;2023-04-22T03:45:16;100227.19;;;8.61;61.95
71299;BME280;59083;47.974;21.722;2023-04-22T03:48:18;100229.84;;;8.61;61.88
71299;BME280;59083;47.974;21.722;2023-04-22T03:51:20;100233.81;;;8.65;61.68
71299;BME280;59083;47.974;21.722;2023-04-22T03:54:21;100240.59;;;8.68;62.06
71299;BME280;59083;47.974;21.722;2023-04-22T03:57:23;100245.66;;;8.78;61.11
71299;BME280;59083;47.974;21.722;2023-04-22T04:00:26;100254.56;;;8.85;61.46
71299;BME280;59083;47.974;21.722;2023-04-22T04:03:28;100256.88;;;8.88;61.13
71299;BME280;59083;47.974;21.722;2023-04-22T04:06:29;100256.63;;;8.97;61.16
71299;BME280;59083;47.974;21.722;2023-04-22T04:09:32;100250.47;;;8.97;61.00
71299;BME280;59083;47.974;21.722;2023-04-22T04:12:33;100260.00;;;9.06;60.58
71299;BME280;59083;47.974;21.722;2023-04-22T04:15:35;100259.56;;;9.17;60.32
71299;BME280;59083;47.974;21.722;2023-04-22T04:18:37;100257.13;;;9.30;59.73
71299;BME280;59083;47.974;21.722;2023-04-22T04:21:39;100267.84;;;9.37;59.72
71299;BME280;59083;47.974;21.722;2023-04-22T04:24:40;100267.47;;;9.40;60.31
71299;BME280;59083;47.974;21.722;2023-04-22T04:27:43;100263.63;;;9.57;59.14
71299;BME280;59083;47.974;21.722;2023-04-22T04:30:45;100274.81;;;9.82;58.88
71299;BME280;59083;47.974;21.722;2023-04-22T04:33:47;100278.47;;;11.16;55.21
71299;BME280;59083;47.974;21.722;2023-04-22T04:36:48;100282.50;;;12.57;51.72
71299;BME280;59083;47.974;21.722;2023-04-22T04:39:53;100278.78;;;13.70;48.62
71299;BME280;59083;47.974;21.722;2023-04-22T04:42:55;100287.19;;;14.31;45.89
71299;BME280;59083;47.974;21.722;2023-04-22T04:45:58;100292.19;;;14.97;43.84
71299;BME280;59083;47.974;21.722;2023-04-22T04:48:59;100296.09;;;15.44;42.48
71299;BME280;59083;47.974;21.722;2023-04-22T04:52:01;100303.94;;;15.70;41.96
71299;BME280;59083;47.974;21.722;2023-04-22T04:55:04;100300.41;;;16.54;40.78
71299;BME280;59083;47.974;21.722;2023-04-22T04:58:06;100304.84;;;16.00;41.10
71299;BME280;59083;47.974;21.722;2023-04-22T05:01:07;100301.31;;;16.66;39.28
71299;BME280;59083;47.974;21.722;2023-04-22T05:04:09;100305.94;;;16.89;39.66
71299;BME280;59083;47.974;21.722;2023-04-22T05:07:12;100300.88;;;17.34;39.33
71299;BME280;59083;47.974;21.722;2023-04-22T05:10:14;100303.25;;;17.65;38.14
71299;BME280;59083;47.974;21.722;2023-04-22T05:13:15;100296.84;;;18.35;37.13
71299;BME280;59083;47.974;21.722;2023-04-22T05:16:18;100303.75;;;18.42;35.39
71299;BME280;59083;47.974;21.722;2023-04-22T05:19:20;100297.34;;;17.45;36.75
71299;BME280;59083;47.974;21.722;2023-04-22T05:22:21;100297.97;;;18.22;37.13
71299;BME280;59083;47.974;21.722;2023-04-22T05:25:23;100299.28;;;18.76;35.38
71299;BME280;59083;47.974;21.722;2023-04-22T05:28:25;100290.97;;;18.78;35.24
71299;BME280;59083;47.974;21.722;2023-04-22T05:31:28;100289.66;;;19.64;34.45
71299;BME280;59083;47.974;21.722;2023-04-22T05:34:29;100292.81;;;19.99;34.18
71299;BME280;59083;47.974;21.722;2023-04-22T05:37:31;100288.66;;;19.36;33.95
71299;BME280;59083;47.974;21.722;2023-04-22T05:40:33;100286.28;;;19.95;33.14
71299;BME280;59083;47.974;21.722;2023-04-22T05:43:35;100289.62;;;21.04;31.45
71299;BME280;59083;47.974;21.722;2023-04-22T05:46:37;100295.84;;;21.32;31.66
71299;BME280;59083;47.974;21.722;2023-04-22T05:49:39;100293.84;;;20.90;32.17
71299;BME280;59083;47.974;21.722;2023-04-22T05:52:41;100295.97;;;21.47;31.33
71299;BME280;59083;47.974;21.722;2023-04-22T05:55:43;100299.56;;;21.21;30.37
71299;BME280;59083;47.974;21.722;2023-04-22T05:58:44;100302.13;;;21.79;28.72
71299;BME280;59083;47.974;21.722;2023-04-22T06:01:45;100308.41;;;21.85;29.62
71299;BME280;59083;47.974;21.722;2023-04-22T06:04:47;100306.44;;;21.75;29.26
71299;BME280;59083;47.974;21.722;2023-04-22T06:07:49;100312.09;;;22.16;29.00
71299;BME280;59083;47.974;21.722;2023-04-22T06:10:50;100307.34;;;22.63;29.16
71299;BME280;59083;47.974;21.722;2023-04-22T06:13:51;100322.37;;;22.86;27.18
71299;BME280;59083;47.974;21.722;2023-04-22T06:16:53;100317.91;;;22.45;28.53
71299;BME280;59083;47.974;21.722;2023-04-22T06:19:54;100320.22;;;22.11;29.11
71299;BME280;59083;47.974;21.722;2023-04-22T06:22:55;100323.22;;;23.47;27.86
71299;BME280;59083;47.974;21.722;2023-04-22T06:25:56;100313.97;;;23.48;26.91
71299;BME280;59083;47.974;21.722;2023-04-22T06:28:59;100313.44;;;23.01;27.03
71299;BME280;59083;47.974;21.722;2023-04-22T06:32:00;100330.81;;;24.50;25.36
71299;BME280;59083;47.974;21.722;2023-04-22T06:35:04;100320.53;;;24.91;25.12
71299;BME280;59083;47.974;21.722;2023-04-22T06:38:06;100310.81;;;24.70;25.55
71299;BME280;59083;47.974;21.722;2023-04-22T06:41:08;100318.69;;;24.17;25.81
71299;BME280;59083;47.974;21.722;2023-04-22T06:44:10;100322.94;;;24.49;25.67
71299;BME280;59083;47.974;21.722;2023-04-22T06:47:14;100321.38;;;24.38;25.34
71299;BME280;59083;47.974;21.722;2023-04-22T06:50:16;100321.44;;;25.16;23.96
71299;BME280;59083;47.974;21.722;2023-04-22T06:53:18;100317.03;;;25.48;24.37
71299;BME280;59083;47.974;21.722;2023-04-22T06:56:19;100315.19;;;24.71;24.59
71299;BME280;59083;47.974;21.722;2023-04-22T06:59:21;100325.56;;;24.64;24.59
71299;BME280;59083;47.974;21.722;2023-04-22T07:02:22;100316.97;;;24.42;25.09
71299;BME280;59083;47.974;21.722;2023-04-22T07:05:23;100324.00;;;24.53;24.70
71299;BME280;59083;47.974;21.722;2023-04-22T07:08:24;100319.56;;;24.03;25.18
71299;BME280;59083;47.974;21.722;2023-04-22T07:11:26;100327.75;;;24.62;24.77
71299;BME280;59083;47.974;21.722;2023-04-22T07:14:28;100324.38;;;24.80;24.65
71299;BME280;59083;47.974;21.722;2023-04-22T07:17:29;100327.09;;;25.53;23.58
71299;BME280;59083;47.974;21.722;2023-04-22T07:20:30;100333.06;;;24.92;24.72
71299;BME280;59083;47.974;21.722;2023-04-22T07:23:32;100326.56;;;26.04;23.19
71299;BME280;59083;47.974;21.722;2023-04-22T07:26:33;100329.66;;;25.44;23.26
71299;BME280;59083;47.974;21.722;2023-04-22T07:29:34;100334.72;;;25.27;24.51
71299;BME280;59083;47.974;21.722;2023-04-22T07:32:35;100336.78;;;25.69;23.67
71299;BME280;59083;47.974;21.722;2023-04-22T07:35:37;100330.66;;;24.26;24.65
71299;BME280;59083;47.974;21.722;2023-04-22T07:38:38;100327.69;;;25.50;23.09
71299;BME280;59083;47.974;21.722;2023-04-22T07:41:39;100316.22;;;25.19;22.50
71299;BME280;59083;47.974;21.722;2023-04-22T07:44:40;100329.34;;;25.46;23.58
71299;BME280;59083;47.974;21.722;2023-04-22T07:47:42;100328.53;;;25.17;23.12
71299;BME280;59083;47.974;21.722;2023-04-22T07:50:43;100325.34;;;25.04;24.21
71299;BME280;59083;47.974;21.722;2023-04-22T07:53:44;100323.84;;;25.56;24.66
71299;BME280;59083;47.974;21.722;2023-04-22T07:56:45;100325.03;;;24.62;24.29
71299;BME280;59083;47.974;21.722;2023-04-22T07:59:47;100325.69;;;24.88;24.75
71299;BME280;59083;47.974;21.722;2023-04-22T08:02:49;100325.03;;;25.74;23.35
71299;BME280;59083;47.974;21.722;2023-04-22T08:05:51;100324.25;;;24.56;25.10
71299;BME280;59083;47.974;21.722;2023-04-22T08:08:52;100321.25;;;24.58;25.35
71299;BME280;59083;47.974;21.722;2023-04-22T08:11:53;100316.78;;;24.72;24.52
71299;BME280;59083;47.974;21.722;2023-04-22T08:14:55;100325.22;;;25.20;23.17
71299;BME280;59083;47.974;21.722;2023-04-22T08:17:58;100329.47;;;24.53;23.67
71299;BME280;59083;47.974;21.722;2023-04-22T08:20:59;100318.09;;;24.36;23.14
71299;BME280;59083;47.974;21.722;2023-04-22T08:24:00;100315.66;;;24.78;23.72
71299;BME280;59083;47.974;21.722;2023-04-22T08:27:01;100329.47;;;23.63;22.89
71299;BME280;59083;47.974;21.722;2023-04-22T08:30:04;100321.00;;;23.85;22.59
71299;BME280;59083;47.974;21.722;2023-04-22T08:33:06;100318.06;;;23.56;23.10
71299;BME280;59083;47.974;21.722;2023-04-22T08:36:08;100322.09;;;23.74;23.06
71299;BME280;59083;47.974;21.722;2023-04-22T08:39:09;100320.50;;;23.32;23.62
71299;BME280;59083;47.974;21.722;2023-04-22T08:42:11;100317.75;;;23.07;22.94
71299;BME280;59083;47.974;21.722;2023-04-22T08:45:13;100317.16;;;22.64;25.73
71299;BME280;59083;47.974;21.722;2023-04-22T08:48:14;100317.19;;;22.90;26.12
71299;BME280;59083;47.974;21.722;2023-04-22T08:51:16;100315.03;;;22.92;24.85
71299;BME280;59083;47.974;21.722;2023-04-22T08:54:18;100310.53;;;22.35;24.92
71299;BME280;59083;47.974;21.722;2023-04-22T08:57:19;100318.66;;;22.30;26.72
71299;BME280;59083;47.974;21.722;2023-04-22T09:00:21;100322.37;;;22.04;25.91
71299;BME280;59083;47.974;21.722;2023-04-22T09:03:22;100317.16;;;21.55;26.52
71299;BME280;59083;47.974;21.722;2023-04-22T09:06:24;100315.72;;;21.84;26.15
71299;BME280;59083;47.974;21.722;2023-04-22T09:09:25;100314.47;;;21.60;26.77
71299;BME280;59083;47.974;21.722;2023-04-22T09:12:27;100311.59;;;21.35;26.79
71299;BME280;59083;47.974;21.722;2023-04-22T09:15:28;100317.84;;;21.09;26.55
71299;BME280;59083;47.974;21.722;2023-04-22T09:18:38;100316.84;;;21.15;27.50
71299;BME280;59083;47.974;21.722;2023-04-22T09:21:40;100312.34;;;21.62;27.36
71299;BME280;59083;47.974;21.722;2023-04-22T09:24:43;100310.09;;;21.54;27.41
71299;BME280;59083;47.974;21.722;2023-04-22T09:27:53;100317.00;;;21.72;26.61
71299;BME280;59083;47.974;21.722;2023-04-22T09:30:59;100313.19;;;22.10;25.53
71299;BME280;59083;47.974;21.722;2023-04-22T09:34:00;100306.34;;;22.02;26.01
71299;BME280;59083;47.974;21.722;2023-04-22T09:37:02;100307.94;;;21.56;25.72
71299;BME280;59083;47.974;21.722;2023-04-22T09:40:03;100307.78;;;21.36;25.23
71299;BME280;59083;47.974;21.722;2023-04-22T09:43:06;100304.09;;;21.47;25.66
71299;BME280;59083;47.974;21.722;2023-04-22T09:46:08;100297.69;;;21.63;25.27
71299;BME280;59083;47.974;21.722;2023-04-22T09:49:10;100295.84;;;21.32;24.45
71299;BME280;59083;47.974;21.722;2023-04-22T09:52:22;100308.66;;;21.10;24.77
71299;BME280;59083;47.974;21.722;2023-04-22T09:55:30;100298.59;;;21.37;24.68
71299;BME280;59083;47.974;21.722;2023-04-22T09:58:32;100286.84;;;21.63;24.34
71299;BME280;59083;47.974;21.722;2023-04-22T10:01:39;100280.41;;;21.79;25.11
71299;BME280;59083;47.974;21.722;2023-04-22T10:04:41;100286.09;;;21.36;24.91
71299;BME280;59083;47.974;21.722;2023-04-22T10:07:43;100295.34;;;21.35;23.35
71299;BME280;59083;47.974;21.722;2023-04-22T10:10:45;100282.22;;;21.22;23.49
71299;BME280;59083;47.974;21.722;2023-04-22T10:13:46;100273.00;;;21.23;24.57
71299;BME280;59083;47.974;21.722;2023-04-22T10:16:49;100278.97;;;21.25;24.35
71299;BME280;59083;47.974;21.722;2023-04-22T10:19:51;100263.72;;;21.98;24.10
71299;BME280;59083;47.974;21.722;2023-04-22T10:22:55;100282.50;;;21.62;23.62
71299;BME280;59083;47.974;21.722;2023-04-22T10:25:57;100274.09;;;21.22;24.16
71299;BME280;59083;47.974;21.722;2023-04-22T10:28:58;100273.72;;;21.45;23.88
71299;BME280;59083;47.974;21.722;2023-04-22T10:35:12;100258.09;;;21.62;24.87
71299;BME280;59083;47.974;21.722;2023-04-22T10:38:14;100268.72;;;21.32;23.79
71299;BME280;59083;47.974;21.722;2023-04-22T10:41:21;100242.94;;;20.92;24.71
71299;BME280;59083;47.974;21.722;2023-04-22T10:44:26;100260.34;;;21.33;24.80
71299;BME280;59083;47.974;21.722;2023-04-22T10:47:34;100262.88;;;21.45;24.59
71299;BME280;59083;47.974;21.722;2023-04-22T10:50:37;100261.03;;;22.03;24.65
71299;BME280;59083;47.974;21.722;2023-04-22T10:53:38;100259.19;;;21.66;24.07
71299;BME280;59083;47.974;21.722;2023-04-22T10:57:19;100256.09;;;21.95;24.77
71299;BME280;59083;47.974;21.722;2023-04-22T11:00:30;100257.00;;;21.63;23.92
71299;BME280;59083;47.974;21.722;2023-04-22T11:03:32;100254.44;;;21.10;24.09
71299;BME280;59083;47.974;21.722;2023-04-22T11:06:33;100255.13;;;21.22;23.63
71299;BME280;59083;47.974;21.722;2023-04-22T11:09:38;100247.03;;;21.32;24.46
71299;BME280;59083;47.974;21.722;2023-04-22T11:12:41;100240.75;;;21.68;24.20
71299;BME280;59083;47.974;21.722;2023-04-22T11:15:45;100235.19;;;21.48;24.55
71299;BME280;59083;47.974;21.722;2023-04-22T11:18:47;100231.53;;;21.69;24.92
71299;BME280;59083;47.974;21.722;2023-04-22T11:21:48;100238.19;;;21.47;24.46
71299;BME280;59083;47.974;21.722;2023-04-22T11:25:00;100223.31;;;21.54;24.07
71299;BME280;59083;47.974;21.722;2023-04-22T11:28:01;100230.37;;;21.55;24.15
71299;BME280;59083;47.974;21.722;2023-04-22T11:31:05;100242.50;;;21.06;24.41
71299;BME280;59083;47.974;21.722;2023-04-22T11:34:08;100238.16;;;20.46;24.64
71299;BME280;59083;47.974;21.722;2023-04-22T11:37:09;100235.56;;;20.07;24.85
71299;BME280;59083;47.974;21.722;2023-04-22T11:40:16;100242.62;;;19.65;25.61
71299;BME280;59083;47.974;21.722;2023-04-22T11:43:18;100239.53;;;20.00;25.76
71299;BME280;59083;47.974;21.722;2023-04-22T11:46:29;100230.63;;;20.48;25.13
71299;BME280;59083;47.974;21.722;2023-04-22T11:49:31;100227.00;;;20.69;24.69
71299;BME280;59083;47.974;21.722;2023-04-22T11:55:48;100227.53;;;20.66;24.89
71299;BME280;59083;47.974;21.722;2023-04-22T11:58:52;100236.81;;;20.75;24.49
71299;BME280;59083;47.974;21.722;2023-04-22T12:01:54;100235.09;;;20.64;24.74
71299;BME280;59083;47.974;21.722;2023-04-22T12:04:57;100231.97;;;20.77;24.65
71299;BME280;59083;47.974;21.722;2023-04-22T12:08:00;100235.31;;;21.21;24.67
71299;BME280;59083;47.974;21.722;2023-04-22T12:11:07;100224.63;;;21.10;24.04
71299;BME280;59083;47.974;21.722;2023-04-22T12:14:10;100225.84;;;21.19;23.46
71299;BME280;59083;47.974;21.722;2023-04-22T12:17:11;100225.06;;;21.28;24.90
71299;BME280;59083;47.974;21.722;2023-04-22T12:20:13;100228.09;;;21.37;23.00
71299;BME280;59083;47.974;21.722;2023-04-22T12:23:15;100211.72;;;21.17;23.38
71299;BME280;59083;47.974;21.722;2023-04-22T12:26:18;100218.94;;;21.48;23.30
71299;BME280;59083;47.974;21.722;2023-04-22T12:29:30;100221.66;;;21.53;23.85
71299;BME280;59083;47.974;21.722;2023-04-22T12:32:32;100215.16;;;21.49;23.33
71299;BME280;59083;47.974;21.722;2023-04-22T12:35:33;100209.50;;;21.61;23.60
71299;BME280;59083;47.974;21.722;2023-04-22T12:38:34;100207.53;;;21.41;23.57
71299;BME280;59083;47.974;21.722;2023-04-22T12:41:35;100203.66;;;21.32;23.70
71299;BME280;59083;47.974;21.722;2023-04-22T12:44:37;100205.88;;;21.03;23.25
71299;BME280;59083;47.974;21.722;2023-04-22T12:47:38;100200.16;;;20.94;23.92
71299;BME280;59083;47.974;21.722;2023-04-22T12:50:39;100198.81;;;21.02;23.15
71299;BME280;59083;47.974;21.722;2023-04-22T12:53:41;100202.19;;;20.77;22.45
71299;BME280;59083;47.974;21.722;2023-04-22T12:56:44;100189.44;;;20.46;23.01
71299;BME280;59083;47.974;21.722;2023-04-22T12:59:46;100185.94;;;20.50;23.14
71299;BME280;59083;47.974;21.722;2023-04-22T13:02:48;100180.25;;;20.47;23.23
71299;BME280;59083;47.974;21.722;2023-04-22T13:05:49;100170.44;;;20.41;23.10
71299;BME280;59083;47.974;21.722;2023-04-22T13:08:51;100184.38;;;20.54;23.48
71299;BME280;59083;47.974;21.722;2023-04-22T13:11:52;100182.00;;;20.63;23.44
71299;BME280;59083;47.974;21.722;2023-04-22T13:14:53;100178.81;;;20.39;23.47
71299;BME280;59083;47.974;21.722;2023-04-22T13:17:54;100175.84;;;20.41;23.77
71299;BME280;59083;47.974;21.722;2023-04-22T13:20:55;100181.88;;;20.48;23.70
71299;BME280;59083;47.974;21.722;2023-04-22T13:23:57;100181.28;;;20.41;23.48
71299;BME280;59083;47.974;21.722;2023-04-22T13:26:58;100186.06;;;20.34;23.46
71299;BME280;59083;47.974;21.722;2023-04-22T13:29:59;100175.31;;;20.17;23.58
71299;BME280;59083;47.974;21.722;2023-04-22T13:33:00;100183.47;;;19.95;23.38
71299;BME280;59083;47.974;21.722;2023-04-22T13:36:02;100178.66;;;19.97;23.76
71299;BME280;59083;47.974;21.722;2023-04-22T13:39:03;100177.44;;;19.88;23.66
71299;BME280;59083;47.974;21.722;2023-04-22T13:42:05;100176.78;;;19.76;23.53
71299;BME280;59083;47.974;21.722;2023-04-22T13:45:06;100170.75;;;19.69;23.87
71299;BME280;59083;47.974;21.722;2023-04-22T13:48:08;100170.44;;;19.87;23.64
71299;BME280;59083;47.974;21.722;2023-04-22T13:51:09;100168.06;;;19.96;23.27
71299;BME280;59083;47.974;21.722;2023-04-22T13:54:10;100165.75;;;20.04;23.32
71299;BME280;59083;47.974;21.722;2023-04-22T13:57:11;100160.34;;;20.04;23.06
71299;BME280;59083;47.974;21.722;2023-04-22T14:00:13;100173.91;;;20.09;23.72
71299;BME280;59083;47.974;21.722;2023-04-22T14:03:15;100171.25;;;20.14;23.40
71299;BME280;59083;47.974;21.722;2023-04-22T14:06:16;100166.34;;;20.11;23.45
71299;BME280;59083;47.974;21.722;2023-04-22T14:09:18;100171.16;;;20.04;24.25
71299;BME280;59083;47.974;21.722;2023-04-22T14:12:19;100171.97;;;19.83;24.28
71299;BME280;59083;47.974;21.722;2023-04-22T14:15:20;100170.66;;;19.86;24.51
71299;BME280;59083;47.974;21.722;2023-04-22T14:18:21;100173.03;;;19.82;24.75
71299;BME280;59083;47.974;21.722;2023-04-22T14:21:23;100169.88;;;19.63;25.34
71299;BME280;59083;47.974;21.722;2023-04-22T14:24:24;100176.47;;;19.51;24.96
71299;BME280;59083;47.974;21.722;2023-04-22T14:27:26;100177.94;;;19.42;24.90
71299;BME280;59083;47.974;21.722;2023-04-22T14:30:27;100186.78;;;19.37;25.34
71299;BME280;59083;47.974;21.722;2023-04-22T14:33:28;100183.69;;;19.28;25.01
71299;BME280;59083;47.974;21.722;2023-04-22T14:36:29;100170.59;;;19.20;25.83
71299;BME280;59083;47.974;21.722;2023-04-22T14:39:31;100176.84;;;19.21;25.84
71299;BME280;59083;47.974;21.722;2023-04-22T14:42:32;100173.72;;;19.29;26.11
71299;BME280;59083;47.974;21.722;2023-04-22T14:45:33;100173.03;;;19.38;25.72
71299;BME280;59083;47.974;21.722;2023-04-22T14:48:35;100167.78;;;19.49;25.69
71299;BME280;59083;47.974;21.722;2023-04-22T14:51:39;100160.59;;;19.59;25.03
71299;BME280;59083;47.974;21.722;2023-04-22T14:54:40;100166.28;;;19.58;24.79
71299;BME280;59083;47.974;21.722;2023-04-22T14:57:41;100158.87;;;19.70;25.06
71299;BME280;59083;47.974;21.722;2023-04-22T15:00:42;100160.62;;;19.81;24.71
71299;BME280;59083;47.974;21.722;2023-04-22T15:03:44;100161.72;;;19.85;24.46
71299;BME280;59083;47.974;21.722;2023-04-22T15:06:45;100159.09;;;19.90;25.00
71299;BME280;59083;47.974;21.722;2023-04-22T15:09:46;100156.94;;;19.92;25.18
71299;BME280;59083;47.974;21.722;2023-04-22T15:12:47;100159.66;;;19.92;25.37
71299;BME280;59083;47.974;21.722;2023-04-22T15:15:48;100154.50;;;19.91;25.19
71299;BME280;59083;47.974;21.722;2023-04-22T15:18:50;100151.41;;;19.82;25.56
71299;BME280;59083;47.974;21.722;2023-04-22T15:21:51;100152.56;;;19.86;25.69
71299;BME280;59083;47.974;21.722;2023-04-22T15:24:52;100149.84;;;19.86;25.66
71299;BME280;59083;47.974;21.722;2023-04-22T15:27:54;100150.97;;;19.90;26.26
71299;BME280;59083;47.974;21.722;2023-04-22T15:30:56;100153.03;;;19.83;25.04
71299;BME280;59083;47.974;21.722;2023-04-22T15:33:57;100146.94;;;19.71;25.74
71299;BME280;59083;47.974;21.722;2023-04-22T15:36:58;100142.13;;;19.73;25.79
71299;BME280;59083;47.974;21.722;2023-04-22T15:40:00;100144.97;;;19.88;25.15
71299;BME280;59083;47.974;21.722;2023-04-22T15:43:01;100137.84;;;19.77;24.76
71299;BME280;59083;47.974;21.722;2023-04-22T15:46:02;100136.72;;;19.73;24.92
71299;BME280;59083;47.974;21.722;2023-04-22T15:49:03;100137.84;;;19.77;25.25